Ellinger, TX (78938)

2:32 AM CST on March 02, 2015 (GMT -0600)
Oak Hill Farm | Change Station
CLOSE
Current Station
Personal Weather Station
Location: Fayetteville, TX
Elevation: 354 ft
Nearby Weather Stations

Elev 354 ft 29.87 °N, 96.65 °W | Updated 28 seconds ago

Overcast
Overcast
42.3 °F
Feels Like 37 °F
N
9.8
Wind Variable Wind from NNE
Gusts 14.3 mph

Today
High -- | Low -- °F
--% Chance of Precip.
Yesterday
High -- | Low -- °F
Precip. -- in
6:51 AM 6:26 PM
Waxing Gibbous, 90% visible
Pressure 30.28 in
Visibility 3.0 miles
Clouds Overcast 400 ft
Windchill 37 °F
Dew Point 40 °F
Humidity 92%
Rainfall 0.00 in
Snow Depth Not available.
UV 0 out of 12
Pollen 8.10 out of 12
Air Quality Not available.
Flu Activity Not available.
METAR K3T5 020815Z AUTO 36007KT 3SM BR OVC004 06/06 A3028 RMK AO2 T00600056

More Conditions Fewer Conditions

Pressure 30.28 in
Visibility 3.0 miles
Clouds Overcast 400 ft
Windchill 37 °F
Dew Point 40 °F
Humidity 92%
Rainfall 0.00 in
Snow Depth Not available.
UV 0 out of 12
Pollen 8.10 out of 12
Air Quality Not available.
Flu Activity Not available.
METAR K3T5 020815Z AUTO 36007KT 3SM BR OVC004 06/06 A3028 RMK AO2 T00600056

More Conditions Fewer Conditions

10-Day Weather Forecast

Almanac

Astronomy

Mar. 02, 2015 Rise Set
Actual Time
Civil Twilight
Nautical Twilight
Astronomical Twilight
Moon
Length of Visible Light
Length of Day
Tomorrow will be .
, % of the Moon is Illuminated

Today's Extremes

State Highs State Lows

Community

WunderPhotos

Upload Photos

1,801,751 photos uploaded!

WunderBlogs® & News

Nearby

Air Quality

  Air Quality AQ Index Pollutant
Not available.

Snow Depth

Station Depth Elevation

Earthquake Activity

City Distance Mag. Time & Date
Minimum magnitude displayed is 2.5.

Coastal Water Temperatures

Place Temperature

Nearby Weather Stations